You are not logged in, Click here to log in
奧斯陸加勒穆恩機場 OSL / ENGM 挪威歐倫薩可區
ICAO: ENGM Country: 挪威歐倫薩可區
Latitude: 60.1939 Longitude: 11.1003
Total Arrivals: 12 Total Departures: 13
Latest Arrival: DY933 (EKCH-ENGM)Arthur. Kung Latest Departure: FS9029 (ENGM-ESSA)Arthur. Kung
Scenery:
METAR : ENGM 121750Z 24008KT 210V300 CAVOK 18/06 Q1015 NOSIG

奧斯陸加勒穆恩機場 OSL

You are accessing this site from IP address 35.168.112.145. Virtual Airline. CMS by phpVMS.Website designed by Zumeweb and edited by Theo Bearman.
There is 0 User(s) Online: | and 19 Guest(s) Online.
All information on this site is for fight simulation purposes only. This site is for flight logging for pilots of Virtual Airline&模擬飛行論壇 FlySim only.